sensor_id;sensor_type;location;lat;lon;timestamp;P1;durP1;ratioP1;P2;durP2;ratioP2
41875;SDS011;27555;50.808;4.402;2023-04-24T00:02:14;22.98;;;9.65;;
41875;SDS011;27555;50.808;4.402;2023-04-24T00:04:40;20.27;;;9.27;;
41875;SDS011;27555;50.808;4.402;2023-04-24T00:07:09;18.90;;;8.95;;
41875;SDS011;27555;50.808;4.402;2023-04-24T00:09:35;31.85;;;8.98;;
41875;SDS011;27555;50.808;4.402;2023-04-24T00:12:01;15.85;;;8.10;;
41875;SDS011;27555;50.808;4.402;2023-04-24T00:14:29;17.83;;;8.93;;
41875;SDS011;27555;50.808;4.402;2023-04-24T00:16:55;20.92;;;9.73;;
41875;SDS011;27555;50.808;4.402;2023-04-24T00:19:21;14.95;;;8.57;;
41875;SDS011;27555;50.808;4.402;2023-04-24T00:21:47;16.38;;;8.30;;
41875;SDS011;27555;50.808;4.402;2023-04-24T00:24:15;19.17;;;9.05;;
41875;SDS011;27555;50.808;4.402;2023-04-24T00:26:41;18.73;;;9.18;;
41875;SDS011;27555;50.808;4.402;2023-04-24T00:29:07;18.92;;;8.65;;
41875;SDS011;27555;50.808;4.402;2023-04-24T00:31:32;21.40;;;8.27;;
41875;SDS011;27555;50.808;4.402;2023-04-24T00:34:00;20.75;;;8.43;;
41875;SDS011;27555;50.808;4.402;2023-04-24T00:36:27;21.05;;;9.07;;
41875;SDS011;27555;50.808;4.402;2023-04-24T00:38:53;15.35;;;7.80;;
41875;SDS011;27555;50.808;4.402;2023-04-24T00:41:19;22.60;;;7.72;;
41875;SDS011;27555;50.808;4.402;2023-04-24T00:43:45;18.63;;;8.52;;
41875;SDS011;27555;50.808;4.402;2023-04-24T00:46:11;16.83;;;9.73;;
41875;SDS011;27555;50.808;4.402;2023-04-24T00:48:39;19.85;;;9.15;;
41875;SDS011;27555;50.808;4.402;2023-04-24T00:51:05;32.13;;;9.35;;
41875;SDS011;27555;50.808;4.402;2023-04-24T00:53:31;23.85;;;8.93;;
41875;SDS011;27555;50.808;4.402;2023-04-24T00:55:57;22.75;;;8.65;;
41875;SDS011;27555;50.808;4.402;2023-04-24T00:58:24;16.65;;;9.02;;
41875;SDS011;27555;50.808;4.402;2023-04-24T01:00:51;19.23;;;9.82;;
41875;SDS011;27555;50.808;4.402;2023-04-24T01:03:22;24.77;;;8.25;;
41875;SDS011;27555;50.808;4.402;2023-04-24T01:05:54;23.50;;;9.60;;
41875;SDS011;27555;50.808;4.402;2023-04-24T01:08:22;21.95;;;8.85;;
41875;SDS011;27555;50.808;4.402;2023-04-24T01:10:49;15.45;;;9.35;;
41875;SDS011;27555;50.808;4.402;2023-04-24T01:13:18;26.63;;;10.13;;
41875;SDS011;27555;50.808;4.402;2023-04-24T01:15:44;28.52;;;8.90;;
41875;SDS011;27555;50.808;4.402;2023-04-24T01:18:10;16.20;;;8.70;;
41875;SDS011;27555;50.808;4.402;2023-04-24T01:20:36;21.45;;;9.98;;
41875;SDS011;27555;50.808;4.402;2023-04-24T01:23:05;19.95;;;9.70;;
41875;SDS011;27555;50.808;4.402;2023-04-24T01:25:31;20.73;;;9.70;;
41875;SDS011;27555;50.808;4.402;2023-04-24T01:27:57;18.98;;;9.38;;
41875;SDS011;27555;50.808;4.402;2023-04-24T01:30:23;17.95;;;8.50;;
41875;SDS011;27555;50.808;4.402;2023-04-24T01:32:49;14.38;;;7.43;;
41875;SDS011;27555;50.808;4.402;2023-04-24T01:35:15;16.30;;;7.95;;
41875;SDS011;27555;50.808;4.402;2023-04-24T01:37:40;16.17;;;8.02;;
41875;SDS011;27555;50.808;4.402;2023-04-24T01:40:06;18.05;;;7.82;;
41875;SDS011;27555;50.808;4.402;2023-04-24T01:42:32;16.23;;;8.90;;
41875;SDS011;27555;50.808;4.402;2023-04-24T01:44:59;14.80;;;8.10;;
41875;SDS011;27555;50.808;4.402;2023-04-24T01:47:26;13.55;;;8.57;;
41875;SDS011;27555;50.808;4.402;2023-04-24T01:49:53;14.15;;;8.55;;
41875;SDS011;27555;50.808;4.402;2023-04-24T01:52:18;13.98;;;8.35;;
41875;SDS011;27555;50.808;4.402;2023-04-24T01:54:44;16.48;;;9.18;;
41875;SDS011;27555;50.808;4.402;2023-04-24T01:57:10;14.23;;;9.50;;
41875;SDS011;27555;50.808;4.402;2023-04-24T01:59:36;21.63;;;10.32;;
41875;SDS011;27555;50.808;4.402;2023-04-24T02:02:02;23.90;;;9.85;;
41875;SDS011;27555;50.808;4.402;2023-04-24T02:04:28;24.88;;;10.68;;
41875;SDS011;27555;50.808;4.402;2023-04-24T02:06:54;18.20;;;10.52;;
41875;SDS011;27555;50.808;4.402;2023-04-24T02:09:20;18.50;;;10.35;;
41875;SDS011;27555;50.808;4.402;2023-04-24T02:11:46;14.68;;;9.70;;
41875;SDS011;27555;50.808;4.402;2023-04-24T02:14:11;22.73;;;10.60;;
41875;SDS011;27555;50.808;4.402;2023-04-24T02:16:37;18.58;;;11.27;;
41875;SDS011;27555;50.808;4.402;2023-04-24T02:19:03;18.70;;;10.88;;
41875;SDS011;27555;50.808;4.402;2023-04-24T02:21:29;22.27;;;12.00;;
41875;SDS011;27555;50.808;4.402;2023-04-24T02:23:56;22.23;;;11.27;;
41875;SDS011;27555;50.808;4.402;2023-04-24T02:26:22;19.63;;;10.10;;
41875;SDS011;27555;50.808;4.402;2023-04-24T02:28:47;18.08;;;10.52;;
41875;SDS011;27555;50.808;4.402;2023-04-24T02:31:13;20.70;;;10.50;;
41875;SDS011;27555;50.808;4.402;2023-04-24T02:33:39;16.45;;;10.15;;
41875;SDS011;27555;50.808;4.402;2023-04-24T02:36:05;18.00;;;10.35;;
41875;SDS011;27555;50.808;4.402;2023-04-24T02:38:30;19.50;;;11.00;;
41875;SDS011;27555;50.808;4.402;2023-04-24T02:40:56;16.30;;;9.48;;
41875;SDS011;27555;50.808;4.402;2023-04-24T02:43:21;16.05;;;8.60;;
41875;SDS011;27555;50.808;4.402;2023-04-24T02:45:47;13.20;;;8.93;;
41875;SDS011;27555;50.808;4.402;2023-04-24T02:48:13;15.13;;;9.32;;
41875;SDS011;27555;50.808;4.402;2023-04-24T02:50:39;18.45;;;9.07;;
41875;SDS011;27555;50.808;4.402;2023-04-24T02:53:05;19.98;;;9.82;;
41875;SDS011;27555;50.808;4.402;2023-04-24T02:55:31;22.35;;;9.50;;
41875;SDS011;27555;50.808;4.402;2023-04-24T02:57:56;14.55;;;8.77;;
41875;SDS011;27555;50.808;4.402;2023-04-24T03:00:22;17.42;;;8.90;;
41875;SDS011;27555;50.808;4.402;2023-04-24T03:02:48;14.27;;;7.88;;
41875;SDS011;27555;50.808;4.402;2023-04-24T03:05:14;21.02;;;8.02;;
41875;SDS011;27555;50.808;4.402;2023-04-24T03:07:40;15.38;;;8.50;;
41875;SDS011;27555;50.808;4.402;2023-04-24T03:10:06;12.48;;;7.93;;
41875;SDS011;27555;50.808;4.402;2023-04-24T03:12:32;41.60;;;8.40;;
41875;SDS011;27555;50.808;4.402;2023-04-24T03:14:58;14.35;;;6.68;;
41875;SDS011;27555;50.808;4.402;2023-04-24T03:17:24;13.85;;;6.53;;
41875;SDS011;27555;50.808;4.402;2023-04-24T03:19:50;13.10;;;6.80;;
41875;SDS011;27555;50.808;4.402;2023-04-24T03:22:15;13.55;;;7.30;;
41875;SDS011;27555;50.808;4.402;2023-04-24T03:24:41;10.55;;;6.47;;
41875;SDS011;27555;50.808;4.402;2023-04-24T03:27:06;15.50;;;6.72;;
41875;SDS011;27555;50.808;4.402;2023-04-24T03:29:32;12.20;;;6.50;;
41875;SDS011;27555;50.808;4.402;2023-04-24T03:31:58;16.88;;;6.75;;
41875;SDS011;27555;50.808;4.402;2023-04-24T03:34:23;10.80;;;7.05;;
41875;SDS011;27555;50.808;4.402;2023-04-24T03:36:49;16.08;;;6.78;;
41875;SDS011;27555;50.808;4.402;2023-04-24T03:39:15;12.02;;;7.63;;
41875;SDS011;27555;50.808;4.402;2023-04-24T03:41:41;12.85;;;7.65;;
41875;SDS011;27555;50.808;4.402;2023-04-24T03:44:06;14.57;;;6.95;;
41875;SDS011;27555;50.808;4.402;2023-04-24T03:46:32;13.00;;;7.00;;
41875;SDS011;27555;50.808;4.402;2023-04-24T03:48:57;13.30;;;7.22;;
41875;SDS011;27555;50.808;4.402;2023-04-24T03:51:23;15.40;;;7.97;;
41875;SDS011;27555;50.808;4.402;2023-04-24T03:53:49;12.27;;;7.80;;
41875;SDS011;27555;50.808;4.402;2023-04-24T03:56:14;11.55;;;7.00;;
41875;SDS011;27555;50.808;4.402;2023-04-24T03:58:40;12.63;;;7.10;;
41875;SDS011;27555;50.808;4.402;2023-04-24T04:01:06;9.65;;;6.22;;
41875;SDS011;27555;50.808;4.402;2023-04-24T04:03:32;14.73;;;6.35;;
41875;SDS011;27555;50.808;4.402;2023-04-24T04:05:58;10.15;;;5.32;;
41875;SDS011;27555;50.808;4.402;2023-04-24T04:08:24;7.47;;;5.35;;
41875;SDS011;27555;50.808;4.402;2023-04-24T04:10:50;9.90;;;5.60;;
41875;SDS011;27555;50.808;4.402;2023-04-24T04:13:15;8.23;;;5.18;;
41875;SDS011;27555;50.808;4.402;2023-04-24T04:15:41;7.53;;;5.05;;
41875;SDS011;27555;50.808;4.402;2023-04-24T04:18:06;7.00;;;5.13;;
41875;SDS011;27555;50.808;4.402;2023-04-24T04:20:32;11.10;;;5.72;;
41875;SDS011;27555;50.808;4.402;2023-04-24T04:22:58;8.02;;;5.00;;
41875;SDS011;27555;50.808;4.402;2023-04-24T04:25:23;6.65;;;4.72;;
41875;SDS011;27555;50.808;4.402;2023-04-24T04:27:49;10.70;;;4.47;;
41875;SDS011;27555;50.808;4.402;2023-04-24T04:30:16;5.93;;;4.22;;
41875;SDS011;27555;50.808;4.402;2023-04-24T04:32:43;5.90;;;4.47;;
41875;SDS011;27555;50.808;4.402;2023-04-24T04:35:09;7.00;;;4.90;;
41875;SDS011;27555;50.808;4.402;2023-04-24T04:37:35;8.40;;;4.65;;
41875;SDS011;27555;50.808;4.402;2023-04-24T04:40:01;5.05;;;3.85;;
41875;SDS011;27555;50.808;4.402;2023-04-24T04:42:37;10.15;;;4.47;;
41875;SDS011;27555;50.808;4.402;2023-04-24T04:45:07;10.13;;;5.43;;
41875;SDS011;27555;50.808;4.402;2023-04-24T04:47:34;7.40;;;4.35;;
41875;SDS011;27555;50.808;4.402;2023-04-24T04:49:59;6.43;;;4.70;;
41875;SDS011;27555;50.808;4.402;2023-04-24T04:52:25;12.88;;;5.03;;
41875;SDS011;27555;50.808;4.402;2023-04-24T04:54:51;8.88;;;5.15;;
41875;SDS011;27555;50.808;4.402;2023-04-24T04:57:17;10.20;;;5.32;;
41875;SDS011;27555;50.808;4.402;2023-04-24T04:59:42;9.02;;;6.20;;
41875;SDS011;27555;50.808;4.402;2023-04-24T05:02:08;9.30;;;5.82;;
41875;SDS011;27555;50.808;4.402;2023-04-24T05:04:34;8.35;;;6.10;;
41875;SDS011;27555;50.808;4.402;2023-04-24T05:07:00;11.95;;;5.90;;
41875;SDS011;27555;50.808;4.402;2023-04-24T05:09:25;13.10;;;7.20;;
41875;SDS011;27555;50.808;4.402;2023-04-24T05:11:52;10.57;;;6.65;;
41875;SDS011;27555;50.808;4.402;2023-04-24T05:14:18;16.30;;;8.43;;
41875;SDS011;27555;50.808;4.402;2023-04-24T05:16:44;14.38;;;7.28;;
41875;SDS011;27555;50.808;4.402;2023-04-24T05:19:09;15.30;;;7.70;;
41875;SDS011;27555;50.808;4.402;2023-04-24T05:21:36;13.85;;;7.90;;
41875;SDS011;27555;50.808;4.402;2023-04-24T05:24:04;11.73;;;6.47;;
41875;SDS011;27555;50.808;4.402;2023-04-24T05:26:30;16.25;;;8.30;;
41875;SDS011;27555;50.808;4.402;2023-04-24T05:28:56;14.80;;;7.35;;
41875;SDS011;27555;50.808;4.402;2023-04-24T05:31:21;17.95;;;8.82;;
41875;SDS011;27555;50.808;4.402;2023-04-24T05:33:47;11.82;;;6.65;;
41875;SDS011;27555;50.808;4.402;2023-04-24T05:36:12;14.77;;;8.57;;
41875;SDS011;27555;50.808;4.402;2023-04-24T05:38:38;19.65;;;9.73;;
41875;SDS011;27555;50.808;4.402;2023-04-24T05:41:04;19.48;;;8.52;;
41875;SDS011;27555;50.808;4.402;2023-04-24T05:43:30;13.80;;;8.18;;
41875;SDS011;27555;50.808;4.402;2023-04-24T05:45:55;12.95;;;8.15;;
41875;SDS011;27555;50.808;4.402;2023-04-24T05:48:21;17.70;;;8.38;;
41875;SDS011;27555;50.808;4.402;2023-04-24T05:50:49;18.48;;;9.25;;
41875;SDS011;27555;50.808;4.402;2023-04-24T05:53:15;14.93;;;8.60;;
41875;SDS011;27555;50.808;4.402;2023-04-24T05:55:41;21.30;;;9.27;;
41875;SDS011;27555;50.808;4.402;2023-04-24T05:58:06;14.85;;;9.10;;
41875;SDS011;27555;50.808;4.402;2023-04-24T06:00:32;18.92;;;9.48;;
41875;SDS011;27555;50.808;4.402;2023-04-24T06:02:59;15.38;;;8.95;;
41875;SDS011;27555;50.808;4.402;2023-04-24T06:05:25;21.45;;;8.50;;
41875;SDS011;27555;50.808;4.402;2023-04-24T06:07:51;18.17;;;8.77;;
41875;SDS011;27555;50.808;4.402;2023-04-24T06:10:17;16.05;;;9.02;;
41875;SDS011;27555;50.808;4.402;2023-04-24T06:12:43;17.25;;;8.13;;
41875;SDS011;27555;50.808;4.402;2023-04-24T06:15:08;17.25;;;8.25;;
41875;SDS011;27555;50.808;4.402;2023-04-24T06:17:34;13.85;;;8.48;;
41875;SDS011;27555;50.808;4.402;2023-04-24T06:20:00;16.80;;;9.75;;
41875;SDS011;27555;50.808;4.402;2023-04-24T06:22:26;22.65;;;9.32;;
41875;SDS011;27555;50.808;4.402;2023-04-24T06:24:52;20.70;;;9.90;;
41875;SDS011;27555;50.808;4.402;2023-04-24T06:27:17;13.95;;;8.05;;
41875;SDS011;27555;50.808;4.402;2023-04-24T06:29:43;26.33;;;9.98;;
41875;SDS011;27555;50.808;4.402;2023-04-24T06:32:08;18.92;;;9.00;;
41875;SDS011;27555;50.808;4.402;2023-04-24T06:34:34;19.42;;;8.50;;
41875;SDS011;27555;50.808;4.402;2023-04-24T06:37:01;19.17;;;9.55;;
41875;SDS011;27555;50.808;4.402;2023-04-24T06:39:27;23.52;;;10.18;;
41875;SDS011;27555;50.808;4.402;2023-04-24T06:41:52;21.33;;;11.13;;
41875;SDS011;27555;50.808;4.402;2023-04-24T06:44:18;27.55;;;11.57;;
41875;SDS011;27555;50.808;4.402;2023-04-24T06:46:44;20.58;;;9.95;;
41875;SDS011;27555;50.808;4.402;2023-04-24T06:49:09;18.90;;;10.25;;
41875;SDS011;27555;50.808;4.402;2023-04-24T06:51:35;21.63;;;10.38;;
41875;SDS011;27555;50.808;4.402;2023-04-24T06:54:01;25.85;;;11.07;;
41875;SDS011;27555;50.808;4.402;2023-04-24T06:56:26;26.20;;;11.25;;
41875;SDS011;27555;50.808;4.402;2023-04-24T06:58:54;24.25;;;11.27;;
41875;SDS011;27555;50.808;4.402;2023-04-24T07:01:20;25.65;;;10.85;;
41875;SDS011;27555;50.808;4.402;2023-04-24T07:03:45;19.05;;;10.15;;
41875;SDS011;27555;50.808;4.402;2023-04-24T07:06:11;18.83;;;10.70;;
41875;SDS011;27555;50.808;4.402;2023-04-24T07:08:37;24.63;;;11.13;;
41875;SDS011;27555;50.808;4.402;2023-04-24T07:11:03;22.27;;;12.13;;
41875;SDS011;27555;50.808;4.402;2023-04-24T07:13:29;22.27;;;11.80;;
41875;SDS011;27555;50.808;4.402;2023-04-24T07:15:55;26.95;;;11.93;;
41875;SDS011;27555;50.808;4.402;2023-04-24T07:18:21;28.55;;;12.38;;
41875;SDS011;27555;50.808;4.402;2023-04-24T07:20:47;37.50;;;12.52;;
41875;SDS011;27555;50.808;4.402;2023-04-24T07:23:15;24.52;;;11.95;;
41875;SDS011;27555;50.808;4.402;2023-04-24T07:25:40;18.92;;;11.32;;
41875;SDS011;27555;50.808;4.402;2023-04-24T07:28:06;21.17;;;10.40;;
41875;SDS011;27555;50.808;4.402;2023-04-24T07:30:32;22.02;;;10.68;;
41875;SDS011;27555;50.808;4.402;2023-04-24T07:32:58;28.40;;;11.23;;
41875;SDS011;27555;50.808;4.402;2023-04-24T07:35:24;23.35;;;10.52;;
41875;SDS011;27555;50.808;4.402;2023-04-24T07:37:53;19.25;;;9.77;;
41875;SDS011;27555;50.808;4.402;2023-04-24T07:40:19;21.35;;;9.18;;
41875;SDS011;27555;50.808;4.402;2023-04-24T07:42:45;22.30;;;11.35;;
41875;SDS011;27555;50.808;4.402;2023-04-24T07:45:13;21.73;;;8.95;;
41875;SDS011;27555;50.808;4.402;2023-04-24T07:47:39;28.67;;;11.25;;
41875;SDS011;27555;50.808;4.402;2023-04-24T07:50:08;27.03;;;11.00;;
41875;SDS011;27555;50.808;4.402;2023-04-24T07:52:34;30.45;;;11.02;;
41875;SDS011;27555;50.808;4.402;2023-04-24T07:55:00;22.08;;;10.93;;
41875;SDS011;27555;50.808;4.402;2023-04-24T07:57:27;25.90;;;11.55;;
41875;SDS011;27555;50.808;4.402;2023-04-24T07:59:53;22.73;;;9.60;;
41875;SDS011;27555;50.808;4.402;2023-04-24T08:02:18;22.30;;;9.25;;
41875;SDS011;27555;50.808;4.402;2023-04-24T08:04:46;21.83;;;9.98;;
41875;SDS011;27555;50.808;4.402;2023-04-24T08:07:12;22.45;;;8.80;;
41875;SDS011;27555;50.808;4.402;2023-04-24T08:09:38;19.27;;;9.52;;
41875;SDS011;27555;50.808;4.402;2023-04-24T08:12:03;18.65;;;9.30;;
41875;SDS011;27555;50.808;4.402;2023-04-24T08:14:29;15.30;;;7.93;;
41875;SDS011;27555;50.808;4.402;2023-04-24T08:16:55;20.90;;;8.30;;
41875;SDS011;27555;50.808;4.402;2023-04-24T08:19:25;12.13;;;6.65;;
41875;SDS011;27555;50.808;4.402;2023-04-24T08:21:51;16.92;;;6.13;;
41875;SDS011;27555;50.808;4.402;2023-04-24T08:24:16;18.70;;;6.13;;
41875;SDS011;27555;50.808;4.402;2023-04-24T08:26:42;17.52;;;6.25;;
41875;SDS011;27555;50.808;4.402;2023-04-24T08:29:08;15.00;;;5.95;;
41875;SDS011;27555;50.808;4.402;2023-04-24T08:31:34;24.02;;;11.25;;
41875;SDS011;27555;50.808;4.402;2023-04-24T08:34:00;12.48;;;5.60;;
41875;SDS011;27555;50.808;4.402;2023-04-24T08:36:26;20.52;;;6.68;;
41875;SDS011;27555;50.808;4.402;2023-04-24T08:38:52;11.65;;;4.70;;
41875;SDS011;27555;50.808;4.402;2023-04-24T08:41:18;12.25;;;5.35;;
41875;SDS011;27555;50.808;4.402;2023-04-24T08:43:45;17.73;;;5.88;;
41875;SDS011;27555;50.808;4.402;2023-04-24T08:46:11;14.85;;;5.18;;
41875;SDS011;27555;50.808;4.402;2023-04-24T08:48:38;14.90;;;4.90;;
41875;SDS011;27555;50.808;4.402;2023-04-24T08:51:06;15.07;;;5.35;;
41875;SDS011;27555;50.808;4.402;2023-04-24T08:53:32;12.45;;;5.28;;
41875;SDS011;27555;50.808;4.402;2023-04-24T08:55:59;13.75;;;4.25;;
41875;SDS011;27555;50.808;4.402;2023-04-24T08:58:27;18.17;;;5.18;;
41875;SDS011;27555;50.808;4.402;2023-04-24T09:00:56;12.13;;;4.25;;
41875;SDS011;27555;50.808;4.402;2023-04-24T09:03:23;14.13;;;3.55;;
41875;SDS011;27555;50.808;4.402;2023-04-24T09:05:50;10.85;;;3.35;;
41875;SDS011;27555;50.808;4.402;2023-04-24T09:08:17;14.43;;;4.10;;
41875;SDS011;27555;50.808;4.402;2023-04-24T09:10:44;10.98;;;4.00;;
41875;SDS011;27555;50.808;4.402;2023-04-24T09:13:10;10.93;;;3.40;;
41875;SDS011;27555;50.808;4.402;2023-04-24T09:15:37;10.55;;;3.88;;
41875;SDS011;27555;50.808;4.402;2023-04-24T09:18:04;9.32;;;3.60;;
41875;SDS011;27555;50.808;4.402;2023-04-24T09:20:30;11.68;;;4.40;;
41875;SDS011;27555;50.808;4.402;2023-04-24T09:22:56;13.65;;;3.28;;
41875;SDS011;27555;50.808;4.402;2023-04-24T09:25:23;10.93;;;3.67;;
41875;SDS011;27555;50.808;4.402;2023-04-24T09:27:58;12.82;;;3.55;;
41875;SDS011;27555;50.808;4.402;2023-04-24T09:30:27;11.90;;;3.58;;
41875;SDS011;27555;50.808;4.402;2023-04-24T09:33:09;7.50;;;2.70;;
41875;SDS011;27555;50.808;4.402;2023-04-24T09:35:42;13.57;;;3.17;;
41875;SDS011;27555;50.808;4.402;2023-04-24T09:38:14;10.15;;;3.55;;
41875;SDS011;27555;50.808;4.402;2023-04-24T09:40:39;7.70;;;3.30;;
41875;SDS011;27555;50.808;4.402;2023-04-24T09:43:09;12.65;;;3.55;;
41875;SDS011;27555;50.808;4.402;2023-04-24T09:45:36;11.88;;;3.50;;
41875;SDS011;27555;50.808;4.402;2023-04-24T09:48:03;11.40;;;4.18;;
41875;SDS011;27555;50.808;4.402;2023-04-24T09:50:30;9.60;;;2.97;;
41875;SDS011;27555;50.808;4.402;2023-04-24T09:53:02;9.45;;;3.33;;
41875;SDS011;27555;50.808;4.402;2023-04-24T09:55:28;13.10;;;3.35;;
41875;SDS011;27555;50.808;4.402;2023-04-24T09:57:58;10.55;;;2.85;;
41875;SDS011;27555;50.808;4.402;2023-04-24T10:00:30;7.68;;;3.13;;
41875;SDS011;27555;50.808;4.402;2023-04-24T10:03:00;11.02;;;3.15;;
41875;SDS011;27555;50.808;4.402;2023-04-24T10:05:31;12.77;;;3.30;;
41875;SDS011;27555;50.808;4.402;2023-04-24T10:07:59;9.73;;;3.00;;
41875;SDS011;27555;50.808;4.402;2023-04-24T10:10:26;9.95;;;2.88;;
41875;SDS011;27555;50.808;4.402;2023-04-24T10:12:52;7.30;;;2.85;;
41875;SDS011;27555;50.808;4.402;2023-04-24T10:15:19;5.32;;;2.58;;
41875;SDS011;27555;50.808;4.402;2023-04-24T10:17:49;6.20;;;3.00;;
41875;SDS011;27555;50.808;4.402;2023-04-24T10:20:20;13.43;;;3.53;;
41875;SDS011;27555;50.808;4.402;2023-04-24T10:22:51;6.63;;;2.53;;
41875;SDS011;27555;50.808;4.402;2023-04-24T10:25:19;8.38;;;2.60;;
41875;SDS011;27555;50.808;4.402;2023-04-24T10:27:46;9.90;;;3.55;;
41875;SDS011;27555;50.808;4.402;2023-04-24T10:30:13;8.55;;;2.97;;
41875;SDS011;27555;50.808;4.402;2023-04-24T10:32:39;7.78;;;3.17;;
41875;SDS011;27555;50.808;4.402;2023-04-24T10:35:08;15.75;;;3.42;;
41875;SDS011;27555;50.808;4.402;2023-04-24T10:37:45;10.95;;;3.00;;
41875;SDS011;27555;50.808;4.402;2023-04-24T10:40:17;8.75;;;3.17;;
41875;SDS011;27555;50.808;4.402;2023-04-24T10:42:48;10.10;;;3.72;;
41875;SDS011;27555;50.808;4.402;2023-04-24T10:45:17;7.95;;;3.33;;
41875;SDS011;27555;50.808;4.402;2023-04-24T10:47:50;6.18;;;2.85;;
41875;SDS011;27555;50.808;4.402;2023-04-24T10:50:27;9.13;;;3.28;;
41875;SDS011;27555;50.808;4.402;2023-04-24T10:53:05;5.45;;;3.38;;
41875;SDS011;27555;50.808;4.402;2023-04-24T10:55:42;7.47;;;3.10;;
41875;SDS011;27555;50.808;4.402;2023-04-24T10:58:22;11.45;;;3.08;;
41875;SDS011;27555;50.808;4.402;2023-04-24T11:00:58;9.13;;;2.88;;
41875;SDS011;27555;50.808;4.402;2023-04-24T11:03:31;9.23;;;3.78;;
41875;SDS011;27555;50.808;4.402;2023-04-24T11:06:05;8.25;;;3.47;;
41875;SDS011;27555;50.808;4.402;2023-04-24T11:08:39;7.65;;;3.55;;
41875;SDS011;27555;50.808;4.402;2023-04-24T11:19:19;8.52;;;3.90;;
41875;SDS011;27555;50.808;4.402;2023-04-24T11:29:47;11.63;;;3.28;;
41875;SDS011;27555;50.808;4.402;2023-04-24T11:34:58;11.77;;;3.95;;
41875;SDS011;27555;50.808;4.402;2023-04-24T11:37:27;9.05;;;4.28;;
41875;SDS011;27555;50.808;4.402;2023-04-24T11:39:55;10.68;;;3.88;;
41875;SDS011;27555;50.808;4.402;2023-04-24T11:42:22;15.35;;;4.07;;
41875;SDS011;27555;50.808;4.402;2023-04-24T11:44:49;10.32;;;4.32;;
41875;SDS011;27555;50.808;4.402;2023-04-24T11:47:15;7.18;;;3.58;;
41875;SDS011;27555;50.808;4.402;2023-04-24T11:49:41;6.07;;;3.75;;
41875;SDS011;27555;50.808;4.402;2023-04-24T11:52:06;14.05;;;4.20;;
41875;SDS011;27555;50.808;4.402;2023-04-24T11:54:32;9.13;;;3.60;;
41875;SDS011;27555;50.808;4.402;2023-04-24T11:56:58;11.25;;;4.65;;
41875;SDS011;27555;50.808;4.402;2023-04-24T11:59:24;9.90;;;4.53;;
41875;SDS011;27555;50.808;4.402;2023-04-24T12:01:50;9.95;;;4.22;;
41875;SDS011;27555;50.808;4.402;2023-04-24T12:04:16;7.38;;;4.15;;
41875;SDS011;27555;50.808;4.402;2023-04-24T12:07:01;5.85;;;3.30;;
41875;SDS011;27555;50.808;4.402;2023-04-24T12:09:28;10.50;;;4.32;;
41875;SDS011;27555;50.808;4.402;2023-04-24T12:11:54;7.63;;;3.70;;
41875;SDS011;27555;50.808;4.402;2023-04-24T12:14:22;11.23;;;4.30;;
41875;SDS011;27555;50.808;4.402;2023-04-24T12:16:48;6.55;;;3.78;;
41875;SDS011;27555;50.808;4.402;2023-04-24T12:19:21;9.50;;;3.92;;
41875;SDS011;27555;50.808;4.402;2023-04-24T12:22:04;6.75;;;4.55;;
41875;SDS011;27555;50.808;4.402;2023-04-24T12:24:30;7.45;;;3.90;;
41875;SDS011;27555;50.808;4.402;2023-04-24T12:26:56;9.02;;;4.72;;
41875;SDS011;27555;50.808;4.402;2023-04-24T12:29:23;6.75;;;3.50;;
41875;SDS011;27555;50.808;4.402;2023-04-24T12:31:50;9.15;;;4.50;;
41875;SDS011;27555;50.808;4.402;2023-04-24T12:34:19;6.10;;;3.88;;
41875;SDS011;27555;50.808;4.402;2023-04-24T12:36:46;8.60;;;4.47;;
41875;SDS011;27555;50.808;4.402;2023-04-24T12:39:19;6.70;;;3.50;;
41875;SDS011;27555;50.808;4.402;2023-04-24T12:41:57;9.75;;;4.00;;
41875;SDS011;27555;50.808;4.402;2023-04-24T12:44:32;8.88;;;3.38;;
41875;SDS011;27555;50.808;4.402;2023-04-24T12:46:59;10.13;;;3.90;;
41875;SDS011;27555;50.808;4.402;2023-04-24T12:49:26;11.55;;;3.90;;
41875;SDS011;27555;50.808;4.402;2023-04-24T12:51:52;8.10;;;3.63;;
41875;SDS011;27555;50.808;4.402;2023-04-24T12:54:18;7.50;;;3.55;;
41875;SDS011;27555;50.808;4.402;2023-04-24T12:56:44;9.32;;;3.33;;
41875;SDS011;27555;50.808;4.402;2023-04-24T12:59:09;6.38;;;3.45;;
41875;SDS011;27555;50.808;4.402;2023-04-24T13:01:35;9.27;;;3.67;;
41875;SDS011;27555;50.808;4.402;2023-04-24T13:04:01;8.60;;;3.40;;
41875;SDS011;27555;50.808;4.402;2023-04-24T13:06:26;6.22;;;3.00;;
41875;SDS011;27555;50.808;4.402;2023-04-24T13:08:52;8.80;;;3.17;;
41875;SDS011;27555;50.808;4.402;2023-04-24T13:11:19;8.95;;;3.15;;
41875;SDS011;27555;50.808;4.402;2023-04-24T13:13:47;6.75;;;2.30;;
41875;SDS011;27555;50.808;4.402;2023-04-24T13:16:12;9.88;;;3.40;;
41875;SDS011;27555;50.808;4.402;2023-04-24T13:18:38;6.60;;;3.13;;
41875;SDS011;27555;50.808;4.402;2023-04-24T13:21:04;6.53;;;3.15;;
41875;SDS011;27555;50.808;4.402;2023-04-24T13:23:29;8.65;;;3.28;;
41875;SDS011;27555;50.808;4.402;2023-04-24T13:25:55;6.22;;;2.72;;
41875;SDS011;27555;50.808;4.402;2023-04-24T13:28:23;10.80;;;2.50;;
41875;SDS011;27555;50.808;4.402;2023-04-24T13:30:50;11.82;;;2.78;;
41875;SDS011;27555;50.808;4.402;2023-04-24T13:33:16;4.80;;;2.97;;
41875;SDS011;27555;50.808;4.402;2023-04-24T13:35:41;5.32;;;2.78;;
41875;SDS011;27555;50.808;4.402;2023-04-24T13:38:07;4.95;;;2.47;;
41875;SDS011;27555;50.808;4.402;2023-04-24T13:40:33;7.57;;;2.40;;
41875;SDS011;27555;50.808;4.402;2023-04-24T13:42:58;8.18;;;2.10;;
41875;SDS011;27555;50.808;4.402;2023-04-24T13:45:24;5.70;;;1.80;;
41875;SDS011;27555;50.808;4.402;2023-04-24T13:47:50;4.72;;;2.72;;
41875;SDS011;27555;50.808;4.402;2023-04-24T13:50:18;6.60;;;2.15;;
41875;SDS011;27555;50.808;4.402;2023-04-24T13:52:44;10.82;;;2.67;;
41875;SDS011;27555;50.808;4.402;2023-04-24T13:55:10;8.00;;;2.25;;
41875;SDS011;27555;50.808;4.402;2023-04-24T13:57:35;6.22;;;2.17;;
41875;SDS011;27555;50.808;4.402;2023-04-24T14:00:01;3.75;;;2.00;;
41875;SDS011;27555;50.808;4.402;2023-04-24T14:02:28;5.95;;;2.00;;
41875;SDS011;27555;50.808;4.402;2023-04-24T14:04:55;4.70;;;2.10;;
41875;SDS011;27555;50.808;4.402;2023-04-24T14:07:20;7.47;;;2.35;;
41875;SDS011;27555;50.808;4.402;2023-04-24T14:09:46;5.03;;;1.95;;
41875;SDS011;27555;50.808;4.402;2023-04-24T14:12:12;5.22;;;1.63;;
41875;SDS011;27555;50.808;4.402;2023-04-24T14:14:39;7.53;;;2.35;;
41875;SDS011;27555;50.808;4.402;2023-04-24T14:17:04;3.88;;;2.17;;
41875;SDS011;27555;50.808;4.402;2023-04-24T14:19:30;8.55;;;2.55;;
41875;SDS011;27555;50.808;4.402;2023-04-24T14:21:56;6.30;;;1.88;;
41875;SDS011;27555;50.808;4.402;2023-04-24T14:24:23;3.15;;;1.60;;
41875;SDS011;27555;50.808;4.402;2023-04-24T14:26:48;7.28;;;1.95;;
41875;SDS011;27555;50.808;4.402;2023-04-24T14:29:14;7.18;;;2.08;;
41875;SDS011;27555;50.808;4.402;2023-04-24T14:31:41;5.57;;;1.50;;
41875;SDS011;27555;50.808;4.402;2023-04-24T14:34:07;3.72;;;1.48;;
41875;SDS011;27555;50.808;4.402;2023-04-24T14:36:33;2.95;;;1.50;;
41875;SDS011;27555;50.808;4.402;2023-04-24T14:39:00;10.32;;;2.03;;
41875;SDS011;27555;50.808;4.402;2023-04-24T14:41:30;3.60;;;2.00;;
41875;SDS011;27555;50.808;4.402;2023-04-24T14:43:56;3.83;;;1.42;;
41875;SDS011;27555;50.808;4.402;2023-04-24T14:46:22;4.05;;;1.50;;
41875;SDS011;27555;50.808;4.402;2023-04-24T14:48:47;5.10;;;1.40;;
41875;SDS011;27555;50.808;4.402;2023-04-24T14:51:13;2.83;;;1.40;;
41875;SDS011;27555;50.808;4.402;2023-04-24T14:53:39;4.30;;;1.40;;
41875;SDS011;27555;50.808;4.402;2023-04-24T14:56:04;2.60;;;1.60;;